sensor_id;sensor_type;location;lat;lon;timestamp;P1;durP1;ratioP1;P2;durP2;ratioP2
948;SDS011;461;51.436;7.312;2023-05-19T09:29:29;7.03;;;2.40;;
948;SDS011;461;51.436;7.312;2023-05-19T09:32:01;5.23;;;2.20;;
948;SDS011;461;51.436;7.312;2023-05-19T09:37:44;5.60;;;2.90;;
948;SDS011;461;51.436;7.312;2023-05-19T09:40:12;5.90;;;2.47;;
948;SDS011;461;51.436;7.312;2023-05-19T09:42:39;7.07;;;2.67;;
948;SDS011;461;51.436;7.312;2023-05-19T09:45:08;4.17;;;2.13;;
948;SDS011;461;51.436;7.312;2023-05-19T09:47:36;4.87;;;2.43;;
948;SDS011;461;51.436;7.312;2023-05-19T09:50:06;4.33;;;2.43;;
948;SDS011;461;51.436;7.312;2023-05-19T09:52:50;8.23;;;2.63;;
948;SDS011;461;51.436;7.312;2023-05-19T09:55:35;8.37;;;4.53;;
948;SDS011;461;51.436;7.312;2023-05-19T09:58:01;4.60;;;2.60;;
948;SDS011;461;51.436;7.312;2023-05-19T10:00:35;3.97;;;2.10;;
948;SDS011;461;51.436;7.312;2023-05-19T10:03:02;10.07;;;2.83;;
948;SDS011;461;51.436;7.312;2023-05-19T10:16:21;6.60;;;3.10;;
948;SDS011;461;51.436;7.312;2023-05-19T10:18:52;7.77;;;2.30;;
948;SDS011;461;51.436;7.312;2023-05-19T11:57:02;6.60;;;3.27;;
948;SDS011;461;51.436;7.312;2023-05-19T11:59:29;6.23;;;3.47;;
948;SDS011;461;51.436;7.312;2023-05-19T12:02:15;5.50;;;2.63;;
948;SDS011;461;51.436;7.312;2023-05-19T12:04:45;7.23;;;3.10;;
948;SDS011;461;51.436;7.312;2023-05-19T12:07:11;4.90;;;2.47;;
948;SDS011;461;51.436;7.312;2023-05-19T12:09:38;7.40;;;2.40;;
948;SDS011;461;51.436;7.312;2023-05-19T12:15:02;6.37;;;2.70;;
948;SDS011;461;51.436;7.312;2023-05-19T12:17:30;4.93;;;2.47;;
948;SDS011;461;51.436;7.312;2023-05-19T12:19:57;5.03;;;2.13;;
948;SDS011;461;51.436;7.312;2023-05-19T12:22:25;6.60;;;2.77;;
948;SDS011;461;51.436;7.312;2023-05-19T12:24:51;5.07;;;2.60;;
948;SDS011;461;51.436;7.312;2023-05-19T12:27:18;10.00;;;3.17;;
948;SDS011;461;51.436;7.312;2023-05-19T12:29:52;5.57;;;2.83;;
948;SDS011;461;51.436;7.312;2023-05-19T12:32:27;9.83;;;3.00;;
948;SDS011;461;51.436;7.312;2023-05-19T12:34:55;6.10;;;2.97;;
948;SDS011;461;51.436;7.312;2023-05-19T12:37:21;6.80;;;2.60;;
948;SDS011;461;51.436;7.312;2023-05-19T12:39:47;9.67;;;3.17;;
948;SDS011;461;51.436;7.312;2023-05-19T12:42:15;5.77;;;2.37;;
948;SDS011;461;51.436;7.312;2023-05-19T12:44:42;4.30;;;2.20;;
948;SDS011;461;51.436;7.312;2023-05-19T12:47:10;3.10;;;2.50;;
948;SDS011;461;51.436;7.312;2023-05-19T13:41:42;3.67;;;2.60;;
948;SDS011;461;51.436;7.312;2023-05-19T13:44:18;3.40;;;2.47;;
948;SDS011;461;51.436;7.312;2023-05-19T13:49:39;4.03;;;2.23;;
948;SDS011;461;51.436;7.312;2023-05-19T13:52:05;3.50;;;2.30;;
948;SDS011;461;51.436;7.312;2023-05-19T13:54:32;5.03;;;3.03;;
948;SDS011;461;51.436;7.312;2023-05-19T14:02:26;6.17;;;3.20;;
948;SDS011;461;51.436;7.312;2023-05-19T14:05:11;6.00;;;2.40;;
948;SDS011;461;51.436;7.312;2023-05-19T14:14:08;5.87;;;2.90;;
948;SDS011;461;51.436;7.312;2023-05-19T14:22:14;3.83;;;2.23;;
948;SDS011;461;51.436;7.312;2023-05-19T14:24:41;5.37;;;2.20;;
948;SDS011;461;51.436;7.312;2023-05-19T14:27:07;9.00;;;2.83;;
948;SDS011;461;51.436;7.312;2023-05-19T14:29:33;5.43;;;2.10;;
948;SDS011;461;51.436;7.312;2023-05-19T14:31:59;4.13;;;2.20;;
948;SDS011;461;51.436;7.312;2023-05-19T14:34:26;2.90;;;2.10;;
948;SDS011;461;51.436;7.312;2023-05-19T14:36:52;2.73;;;2.03;;
948;SDS011;461;51.436;7.312;2023-05-19T14:39:19;4.13;;;2.20;;
948;SDS011;461;51.436;7.312;2023-05-19T14:41:45;3.30;;;2.43;;
948;SDS011;461;51.436;7.312;2023-05-19T14:44:14;4.70;;;2.27;;
948;SDS011;461;51.436;7.312;2023-05-19T14:46:41;5.43;;;3.03;;
948;SDS011;461;51.436;7.312;2023-05-19T14:49:07;4.30;;;2.30;;
948;SDS011;461;51.436;7.312;2023-05-19T14:51:33;6.73;;;2.07;;
948;SDS011;461;51.436;7.312;2023-05-19T14:53:59;2.80;;;2.13;;
948;SDS011;461;51.436;7.312;2023-05-19T14:56:26;4.60;;;2.30;;
948;SDS011;461;51.436;7.312;2023-05-19T14:58:52;3.10;;;2.50;;
948;SDS011;461;51.436;7.312;2023-05-19T15:01:18;2.97;;;2.20;;
948;SDS011;461;51.436;7.312;2023-05-19T15:03:44;2.07;;;1.80;;
948;SDS011;461;51.436;7.312;2023-05-19T15:06:10;7.90;;;2.60;;
948;SDS011;461;51.436;7.312;2023-05-19T15:08:36;13.53;;;2.77;;
948;SDS011;461;51.436;7.312;2023-05-19T15:11:04;4.90;;;2.73;;
948;SDS011;461;51.436;7.312;2023-05-19T15:13:30;6.80;;;2.57;;
948;SDS011;461;51.436;7.312;2023-05-19T15:15:56;4.10;;;2.60;;
948;SDS011;461;51.436;7.312;2023-05-19T15:18:24;3.10;;;2.40;;
948;SDS011;461;51.436;7.312;2023-05-19T15:20:50;4.13;;;2.47;;
948;SDS011;461;51.436;7.312;2023-05-19T15:23:16;3.57;;;2.37;;
948;SDS011;461;51.436;7.312;2023-05-19T15:25:42;3.40;;;2.00;;
948;SDS011;461;51.436;7.312;2023-05-19T15:28:09;2.93;;;2.30;;
948;SDS011;461;51.436;7.312;2023-05-19T15:30:36;3.60;;;2.33;;
948;SDS011;461;51.436;7.312;2023-05-19T15:33:03;3.97;;;2.33;;
948;SDS011;461;51.436;7.312;2023-05-19T15:35:32;4.70;;;2.50;;
948;SDS011;461;51.436;7.312;2023-05-19T15:37:58;5.87;;;2.30;;
948;SDS011;461;51.436;7.312;2023-05-19T15:40:29;3.73;;;2.47;;
948;SDS011;461;51.436;7.312;2023-05-19T15:42:56;4.80;;;2.17;;
948;SDS011;461;51.436;7.312;2023-05-19T15:45:22;2.77;;;2.30;;
948;SDS011;461;51.436;7.312;2023-05-19T15:47:48;4.10;;;3.47;;
948;SDS011;461;51.436;7.312;2023-05-19T15:50:14;3.17;;;2.10;;
948;SDS011;461;51.436;7.312;2023-05-19T15:52:40;5.73;;;2.40;;
948;SDS011;461;51.436;7.312;2023-05-19T15:55:06;8.97;;;2.57;;
948;SDS011;461;51.436;7.312;2023-05-19T15:57:33;3.87;;;2.00;;
948;SDS011;461;51.436;7.312;2023-05-19T15:59:59;5.87;;;3.10;;
948;SDS011;461;51.436;7.312;2023-05-19T16:02:25;7.87;;;3.27;;
948;SDS011;461;51.436;7.312;2023-05-19T16:04:52;4.53;;;2.60;;
948;SDS011;461;51.436;7.312;2023-05-19T16:07:18;3.03;;;2.30;;
948;SDS011;461;51.436;7.312;2023-05-19T16:09:46;4.70;;;2.47;;
948;SDS011;461;51.436;7.312;2023-05-19T16:12:13;5.50;;;2.57;;
948;SDS011;461;51.436;7.312;2023-05-19T16:14:40;3.20;;;2.07;;
948;SDS011;461;51.436;7.312;2023-05-19T16:17:06;5.40;;;1.93;;
948;SDS011;461;51.436;7.312;2023-05-19T16:19:35;7.70;;;2.67;;
948;SDS011;461;51.436;7.312;2023-05-19T16:22:02;4.40;;;2.20;;
948;SDS011;461;51.436;7.312;2023-05-19T16:24:28;5.53;;;2.40;;
948;SDS011;461;51.436;7.312;2023-05-19T16:26:54;2.40;;;1.67;;
948;SDS011;461;51.436;7.312;2023-05-19T16:29:20;4.33;;;2.30;;
948;SDS011;461;51.436;7.312;2023-05-19T16:31:46;5.63;;;2.10;;
948;SDS011;461;51.436;7.312;2023-05-19T16:34:13;4.27;;;2.23;;
948;SDS011;461;51.436;7.312;2023-05-19T16:36:39;4.40;;;2.80;;
948;SDS011;461;51.436;7.312;2023-05-19T16:39:05;3.70;;;2.17;;
948;SDS011;461;51.436;7.312;2023-05-19T16:41:31;3.20;;;2.37;;
948;SDS011;461;51.436;7.312;2023-05-19T16:43:57;5.57;;;2.13;;
948;SDS011;461;51.436;7.312;2023-05-19T16:46:23;7.40;;;2.27;;
948;SDS011;461;51.436;7.312;2023-05-19T16:48:50;8.33;;;2.27;;
948;SDS011;461;51.436;7.312;2023-05-19T16:51:16;4.37;;;2.27;;
948;SDS011;461;51.436;7.312;2023-05-19T16:53:42;3.97;;;2.00;;
948;SDS011;461;51.436;7.312;2023-05-19T16:56:08;5.33;;;2.97;;
948;SDS011;461;51.436;7.312;2023-05-19T16:58:34;7.00;;;2.33;;
948;SDS011;461;51.436;7.312;2023-05-19T17:01:00;2.60;;;2.30;;
948;SDS011;461;51.436;7.312;2023-05-19T17:03:27;4.90;;;2.37;;
948;SDS011;461;51.436;7.312;2023-05-19T17:05:55;5.87;;;2.43;;
948;SDS011;461;51.436;7.312;2023-05-19T17:08:21;4.73;;;2.53;;
948;SDS011;461;51.436;7.312;2023-05-19T17:10:48;3.70;;;2.30;;
948;SDS011;461;51.436;7.312;2023-05-19T17:13:14;5.97;;;2.90;;
948;SDS011;461;51.436;7.312;2023-05-19T17:15:40;6.33;;;2.60;;
948;SDS011;461;51.436;7.312;2023-05-19T17:18:06;4.10;;;2.67;;
948;SDS011;461;51.436;7.312;2023-05-19T17:20:32;5.87;;;2.67;;
948;SDS011;461;51.436;7.312;2023-05-19T17:22:58;3.93;;;2.67;;
948;SDS011;461;51.436;7.312;2023-05-19T17:25:25;5.00;;;2.10;;
948;SDS011;461;51.436;7.312;2023-05-19T17:27:51;5.90;;;2.60;;
948;SDS011;461;51.436;7.312;2023-05-19T17:30:17;4.93;;;3.60;;
948;SDS011;461;51.436;7.312;2023-05-19T17:35:12;4.47;;;2.80;;
948;SDS011;461;51.436;7.312;2023-05-19T17:37:38;5.70;;;2.70;;
948;SDS011;461;51.436;7.312;2023-05-19T17:40:05;4.53;;;2.03;;
948;SDS011;461;51.436;7.312;2023-05-19T17:42:33;6.03;;;2.50;;
948;SDS011;461;51.436;7.312;2023-05-19T17:44:59;8.63;;;2.57;;
948;SDS011;461;51.436;7.312;2023-05-19T17:47:25;4.33;;;2.57;;
948;SDS011;461;51.436;7.312;2023-05-19T17:49:51;4.73;;;2.50;;
948;SDS011;461;51.436;7.312;2023-05-19T17:52:19;2.33;;;2.10;;
948;SDS011;461;51.436;7.312;2023-05-19T17:54:46;3.50;;;1.93;;
948;SDS011;461;51.436;7.312;2023-05-19T17:57:12;2.57;;;1.67;;
948;SDS011;461;51.436;7.312;2023-05-19T17:59:41;4.60;;;2.30;;
948;SDS011;461;51.436;7.312;2023-05-19T18:02:07;3.83;;;2.20;;
948;SDS011;461;51.436;7.312;2023-05-19T18:04:34;6.87;;;1.77;;
948;SDS011;461;51.436;7.312;2023-05-19T18:07:01;4.20;;;2.40;;
948;SDS011;461;51.436;7.312;2023-05-19T18:09:28;4.60;;;2.23;;
948;SDS011;461;51.436;7.312;2023-05-19T18:11:55;4.80;;;2.37;;
948;SDS011;461;51.436;7.312;2023-05-19T18:14:22;3.03;;;2.00;;
948;SDS011;461;51.436;7.312;2023-05-19T18:16:48;2.73;;;1.90;;
948;SDS011;461;51.436;7.312;2023-05-19T18:19:14;2.90;;;2.40;;
948;SDS011;461;51.436;7.312;2023-05-19T18:21:40;4.00;;;2.50;;
948;SDS011;461;51.436;7.312;2023-05-19T18:24:07;2.57;;;2.00;;
948;SDS011;461;51.436;7.312;2023-05-19T18:26:33;3.20;;;2.10;;
948;SDS011;461;51.436;7.312;2023-05-19T18:29:01;3.83;;;2.47;;
948;SDS011;461;51.436;7.312;2023-05-19T18:31:28;3.67;;;2.40;;
948;SDS011;461;51.436;7.312;2023-05-19T18:33:55;2.90;;;2.17;;
948;SDS011;461;51.436;7.312;2023-05-19T18:36:21;4.00;;;2.20;;
948;SDS011;461;51.436;7.312;2023-05-19T18:38:48;3.60;;;1.90;;
948;SDS011;461;51.436;7.312;2023-05-19T18:41:14;3.87;;;2.23;;
948;SDS011;461;51.436;7.312;2023-05-19T18:43:40;4.70;;;2.50;;
948;SDS011;461;51.436;7.312;2023-05-19T18:46:07;2.10;;;1.60;;
948;SDS011;461;51.436;7.312;2023-05-19T18:48:33;4.00;;;2.20;;
948;SDS011;461;51.436;7.312;2023-05-19T18:50:59;3.10;;;2.13;;
948;SDS011;461;51.436;7.312;2023-05-19T18:53:27;3.60;;;1.97;;
948;SDS011;461;51.436;7.312;2023-05-19T18:55:53;2.77;;;2.13;;
948;SDS011;461;51.436;7.312;2023-05-19T18:58:19;5.07;;;2.10;;
948;SDS011;461;51.436;7.312;2023-05-19T19:00:45;3.50;;;2.20;;
948;SDS011;461;51.436;7.312;2023-05-19T19:03:12;3.00;;;2.20;;
948;SDS011;461;51.436;7.312;2023-05-19T19:05:38;4.77;;;3.20;;
948;SDS011;461;51.436;7.312;2023-05-19T19:08:05;3.00;;;1.90;;
948;SDS011;461;51.436;7.312;2023-05-19T19:10:31;2.50;;;2.30;;
948;SDS011;461;51.436;7.312;2023-05-19T19:13:02;4.63;;;2.17;;
948;SDS011;461;51.436;7.312;2023-05-19T19:15:28;2.77;;;2.20;;
948;SDS011;461;51.436;7.312;2023-05-19T19:17:54;1.63;;;1.53;;
948;SDS011;461;51.436;7.312;2023-05-19T19:20:20;2.37;;;2.03;;
948;SDS011;461;51.436;7.312;2023-05-19T19:22:47;2.50;;;2.00;;
948;SDS011;461;51.436;7.312;2023-05-19T19:25:13;1.87;;;1.73;;
948;SDS011;461;51.436;7.312;2023-05-19T19:27:39;5.40;;;1.90;;
948;SDS011;461;51.436;7.312;2023-05-19T19:30:05;7.30;;;2.50;;
948;SDS011;461;51.436;7.312;2023-05-19T19:32:33;2.43;;;1.83;;
948;SDS011;461;51.436;7.312;2023-05-19T19:34:59;3.17;;;2.20;;
948;SDS011;461;51.436;7.312;2023-05-19T19:37:25;2.60;;;2.30;;
948;SDS011;461;51.436;7.312;2023-05-19T19:39:51;5.50;;;2.20;;
948;SDS011;461;51.436;7.312;2023-05-19T19:42:19;8.77;;;2.67;;
948;SDS011;461;51.436;7.312;2023-05-19T19:44:45;3.27;;;2.10;;
948;SDS011;461;51.436;7.312;2023-05-19T19:47:11;2.37;;;2.00;;
948;SDS011;461;51.436;7.312;2023-05-19T19:49:37;4.20;;;2.73;;
948;SDS011;461;51.436;7.312;2023-05-19T19:52:10;4.30;;;2.37;;
948;SDS011;461;51.436;7.312;2023-05-19T19:54:36;2.60;;;1.97;;
948;SDS011;461;51.436;7.312;2023-05-19T19:57:02;6.77;;;2.40;;
948;SDS011;461;51.436;7.312;2023-05-19T19:59:28;3.50;;;2.17;;
948;SDS011;461;51.436;7.312;2023-05-19T20:01:55;3.27;;;2.30;;
948;SDS011;461;51.436;7.312;2023-05-19T20:04:21;3.17;;;2.43;;
948;SDS011;461;51.436;7.312;2023-05-19T20:06:47;3.50;;;2.00;;
948;SDS011;461;51.436;7.312;2023-05-19T20:09:13;3.13;;;2.13;;
948;SDS011;461;51.436;7.312;2023-05-19T20:11:40;4.13;;;2.40;;
948;SDS011;461;51.436;7.312;2023-05-19T20:14:07;5.37;;;2.30;;
948;SDS011;461;51.436;7.312;2023-05-19T20:16:33;4.40;;;2.57;;
948;SDS011;461;51.436;7.312;2023-05-19T20:19:00;5.53;;;2.53;;
948;SDS011;461;51.436;7.312;2023-05-19T20:21:26;3.70;;;2.40;;
948;SDS011;461;51.436;7.312;2023-05-19T20:23:52;3.30;;;2.53;;
948;SDS011;461;51.436;7.312;2023-05-19T20:26:18;5.53;;;1.80;;
948;SDS011;461;51.436;7.312;2023-05-19T20:28:44;3.17;;;2.20;;
948;SDS011;461;51.436;7.312;2023-05-19T20:31:10;4.67;;;2.43;;
948;SDS011;461;51.436;7.312;2023-05-19T20:33:37;7.47;;;2.30;;
948;SDS011;461;51.436;7.312;2023-05-19T20:36:03;3.20;;;2.37;;
948;SDS011;461;51.436;7.312;2023-05-19T20:38:30;4.10;;;2.50;;
948;SDS011;461;51.436;7.312;2023-05-19T20:40:57;8.13;;;2.40;;
948;SDS011;461;51.436;7.312;2023-05-19T20:43:24;3.80;;;3.13;;
948;SDS011;461;51.436;7.312;2023-05-19T20:45:50;4.20;;;3.53;;
948;SDS011;461;51.436;7.312;2023-05-19T20:48:16;5.10;;;3.70;;
948;SDS011;461;51.436;7.312;2023-05-19T20:50:42;4.17;;;3.80;;
948;SDS011;461;51.436;7.312;2023-05-19T20:53:08;4.87;;;3.53;;
948;SDS011;461;51.436;7.312;2023-05-19T20:55:34;4.27;;;2.73;;
948;SDS011;461;51.436;7.312;2023-05-19T20:58:01;3.60;;;2.50;;
948;SDS011;461;51.436;7.312;2023-05-19T21:00:28;9.30;;;3.43;;
948;SDS011;461;51.436;7.312;2023-05-19T21:02:57;4.73;;;2.80;;
948;SDS011;461;51.436;7.312;2023-05-19T21:05:44;3.43;;;2.40;;
948;SDS011;461;51.436;7.312;2023-05-19T21:08:10;3.93;;;2.80;;
948;SDS011;461;51.436;7.312;2023-05-19T21:10:42;3.43;;;2.57;;
948;SDS011;461;51.436;7.312;2023-05-19T21:13:14;3.10;;;2.40;;
948;SDS011;461;51.436;7.312;2023-05-19T21:16:27;5.73;;;2.90;;
948;SDS011;461;51.436;7.312;2023-05-19T21:19:54;5.03;;;2.83;;
948;SDS011;461;51.436;7.312;2023-05-19T21:25:17;3.97;;;3.33;;
948;SDS011;461;51.436;7.312;2023-05-19T21:27:45;4.50;;;3.47;;
948;SDS011;461;51.436;7.312;2023-05-19T21:30:15;4.80;;;3.37;;
948;SDS011;461;51.436;7.312;2023-05-19T21:32:44;4.93;;;3.70;;
948;SDS011;461;51.436;7.312;2023-05-19T21:35:20;4.93;;;3.00;;
948;SDS011;461;51.436;7.312;2023-05-19T21:38:04;3.60;;;2.80;;
948;SDS011;461;51.436;7.312;2023-05-19T21:40:30;6.00;;;3.00;;
948;SDS011;461;51.436;7.312;2023-05-19T21:43:00;6.53;;;3.40;;
948;SDS011;461;51.436;7.312;2023-05-19T21:45:26;4.53;;;3.20;;
948;SDS011;461;51.436;7.312;2023-05-19T21:47:54;5.43;;;3.00;;
948;SDS011;461;51.436;7.312;2023-05-19T21:50:23;6.23;;;3.17;;
948;SDS011;461;51.436;7.312;2023-05-19T21:52:52;4.10;;;3.17;;
948;SDS011;461;51.436;7.312;2023-05-19T21:55:26;6.37;;;3.40;;
948;SDS011;461;51.436;7.312;2023-05-19T21:57:52;5.93;;;3.13;;
948;SDS011;461;51.436;7.312;2023-05-19T22:00:22;6.07;;;3.80;;
948;SDS011;461;51.436;7.312;2023-05-19T22:02:52;4.63;;;2.70;;
948;SDS011;461;51.436;7.312;2023-05-19T22:05:22;3.40;;;2.93;;
948;SDS011;461;51.436;7.312;2023-05-19T22:07:48;4.90;;;3.07;;
948;SDS011;461;51.436;7.312;2023-05-19T22:10:13;3.57;;;2.67;;
948;SDS011;461;51.436;7.312;2023-05-19T22:12:39;4.20;;;2.93;;
948;SDS011;461;51.436;7.312;2023-05-19T22:15:06;8.70;;;3.23;;
948;SDS011;461;51.436;7.312;2023-05-19T22:17:45;3.63;;;2.60;;
948;SDS011;461;51.436;7.312;2023-05-19T22:20:15;4.93;;;2.90;;
948;SDS011;461;51.436;7.312;2023-05-19T22:22:45;3.60;;;3.20;;
948;SDS011;461;51.436;7.312;2023-05-19T22:25:14;3.63;;;2.77;;
948;SDS011;461;51.436;7.312;2023-05-19T22:27:46;4.90;;;3.03;;
948;SDS011;461;51.436;7.312;2023-05-19T22:30:15;4.10;;;2.80;;
948;SDS011;461;51.436;7.312;2023-05-19T22:32:45;3.80;;;2.77;;
948;SDS011;461;51.436;7.312;2023-05-19T22:35:13;3.50;;;2.70;;
948;SDS011;461;51.436;7.312;2023-05-19T22:37:42;3.30;;;2.73;;
948;SDS011;461;51.436;7.312;2023-05-19T22:40:15;4.90;;;2.77;;
948;SDS011;461;51.436;7.312;2023-05-19T22:42:46;4.30;;;2.57;;
948;SDS011;461;51.436;7.312;2023-05-19T22:45:16;3.40;;;2.77;;
948;SDS011;461;51.436;7.312;2023-05-19T22:47:42;7.57;;;3.40;;
948;SDS011;461;51.436;7.312;2023-05-19T22:50:11;4.90;;;3.63;;
948;SDS011;461;51.436;7.312;2023-05-19T22:52:38;8.67;;;4.53;;
948;SDS011;461;51.436;7.312;2023-05-19T22:55:10;5.23;;;3.40;;
948;SDS011;461;51.436;7.312;2023-05-19T23:13:23;4.73;;;4.43;;
948;SDS011;461;51.436;7.312;2023-05-19T23:23:05;4.70;;;3.47;;
948;SDS011;461;51.436;7.312;2023-05-19T23:25:52;5.20;;;3.70;;
948;SDS011;461;51.436;7.312;2023-05-19T23:28:28;4.83;;;3.40;;
948;SDS011;461;51.436;7.312;2023-05-19T23:31:00;5.77;;;5.07;;
948;SDS011;461;51.436;7.312;2023-05-19T23:37:37;6.83;;;3.70;;
948;SDS011;461;51.436;7.312;2023-05-19T23:40:06;5.60;;;3.80;;
948;SDS011;461;51.436;7.312;2023-05-19T23:42:38;5.73;;;4.47;;
948;SDS011;461;51.436;7.312;2023-05-19T23:45:19;6.10;;;4.00;;
948;SDS011;461;51.436;7.312;2023-05-19T23:47:53;5.63;;;3.50;;
948;SDS011;461;51.436;7.312;2023-05-19T23:50:23;5.27;;;3.70;;
948;SDS011;461;51.436;7.312;2023-05-19T23:52:53;4.03;;;3.63;;
948;SDS011;461;51.436;7.312;2023-05-19T23:55:24;7.27;;;4.00;;
